Time;durP1;ratioP1;P1;durP2;ratioP2;P2;SDS_P1;SDS_P2;PMS_P1;PMS_P2;Temp;Humidity;BMP_temperature;BMP_pressure;BME280_temperature;BME280_humidity;BME280_pressure;Samples;Min_cycle;Max_cycle;Signal;HPM_P1;HPM_P2
2022/03/28 00:00:28;;;;;;;11.07;7.03;;;10.60;50.30;;;11.14;43.45;98495.88;5008891;28;20052;-40
2022/03/28 00:02:56;;;;;;;11.83;7.60;;;10.60;50.10;;;11.13;43.33;98496.88;5009928;28;20268;-40
2022/03/28 00:05:24;;;;;;;12.40;7.93;;;10.60;50.30;;;11.10;43.64;98491.81;5009846;28;20052;-40
2022/03/28 00:07:51;;;;;;;10.47;7.13;;;10.60;50.40;;;11.12;43.57;98490.66;5010363;28;20044;-40
2022/03/28 00:10:19;;;;;;;12.37;7.43;;;10.60;50.10;;;11.16;43.12;98493.91;5010326;28;20045;-40
2022/03/28 00:12:47;;;;;;;14.77;7.60;;;10.70;49.80;;;11.14;43.54;98494.03;5008042;28;20046;-40
2022/03/28 00:15:16;;;;;;;12.30;7.60;;;10.60;49.90;;;11.13;43.21;98481.72;5010496;28;20045;-40
2022/03/28 00:17:44;;;;;;;12.60;8.83;;;10.70;50.00;;;11.10;43.18;98481.97;5008885;28;20057;-40
2022/03/28 00:20:12;;;;;;;10.87;7.70;;;10.60;50.00;;;11.10;43.12;98481.16;5008866;28;20056;-40
2022/03/28 00:22:41;;;;;;;13.00;8.13;;;10.60;49.90;;;11.12;43.33;98480.00;5009204;28;20256;-40
2022/03/28 00:25:11;;;;;;;13.10;8.07;;;10.60;49.70;;;11.13;43.08;98473.72;5009021;28;20048;-40
2022/03/28 00:27:39;;;;;;;15.20;8.37;;;10.70;49.80;;;11.15;43.20;98468.25;5007935;28;20056;-40
2022/03/28 00:30:09;;;;;;;16.80;9.70;;;10.70;49.60;;;11.13;43.41;98464.88;5009734;28;20370;-40
2022/03/28 00:32:37;;;;;;;10.63;7.93;;;10.70;49.60;;;11.09;42.90;98468.78;5009250;28;20233;-40
2022/03/28 00:35:06;;;;;;;14.17;7.70;;;10.50;49.70;;;10.94;43.56;98468.44;5009018;28;20049;-40
2022/03/28 00:37:37;;;;;;;14.47;7.77;;;10.30;50.30;;;10.92;43.50;98465.06;5009195;28;20054;-40
2022/03/28 00:40:10;;;;;;;12.47;7.63;;;10.30;50.00;;;10.93;43.36;98464.06;5008167;28;20237;-59
2022/03/28 00:42:38;;;;;;;16.38;9.18;;;10.40;49.90;;;10.92;43.33;98457.91;5010578;28;20064;-59
2022/03/28 00:45:07;;;;;;;13.20;6.90;;;10.40;49.50;;;10.91;42.90;98456.22;5010260;28;20054;-59
2022/03/28 00:47:35;;;;;;;14.97;8.93;;;10.40;49.30;;;10.93;43.04;98450.75;5009845;28;20060;-58
2022/03/28 00:50:04;;;;;;;14.90;7.87;;;10.40;49.10;;;10.91;42.89;98453.56;5009984;28;20045;-59
2022/03/28 00:52:34;;;;;;;22.10;8.93;;;10.40;49.10;;;10.90;42.68;98449.22;5009643;28;20050;-59
2022/03/28 00:55:04;;;;;;;15.10;7.80;;;10.40;49.00;;;10.84;42.65;98447.97;5008998;28;20072;-59
2022/03/28 00:57:33;;;;;;;16.27;7.83;;;10.30;49.10;;;10.84;42.74;98441.81;5010437;28;20057;-59
2022/03/28 01:00:06;;;;;;;13.77;7.83;;;10.40;48.80;;;10.84;42.59;98447.13;5008648;28;20072;-59
2022/03/28 01:02:33;;;;;;;13.43;6.83;;;10.30;48.80;;;10.83;42.66;98453.44;5008945;28;20052;-59
2022/03/28 01:05:02;;;;;;;16.50;8.97;;;10.30;48.70;;;10.82;42.33;98446.44;5008639;28;20060;-59
2022/03/28 01:07:30;;;;;;;12.37;8.03;;;10.30;48.30;;;10.80;42.45;98446.59;5009725;28;20064;-59
2022/03/28 01:10:01;;;;;;;13.67;8.23;;;10.30;48.30;;;10.78;42.11;98445.06;5008912;28;20056;-59
2022/03/28 01:12:34;;;;;;;13.33;8.20;;;10.30;48.30;;;10.76;42.19;98441.66;5007451;28;20061;-58
2022/03/28 01:15:04;;;;;;;14.55;7.10;;;10.20;48.20;;;10.76;42.35;98436.34;5008848;28;20074;-59
2022/03/28 01:20:19;;;;;;;13.57;7.07;;;10.30;47.90;;;10.78;42.13;98429.06;5008729;28;20050;-59
2022/03/28 01:22:46;;;;;;;16.13;7.70;;;10.30;47.50;;;10.81;41.84;98424.28;5007981;28;20263;-59
2022/03/28 01:25:24;;;;;;;17.77;8.37;;;10.40;47.30;;;10.83;41.99;98422.31;5007452;28;20060;-59
2022/03/28 01:27:53;;;;;;;13.03;8.90;;;10.40;47.20;;;10.84;41.63;98423.16;5006273;28;20068;-59
2022/03/28 01:30:22;;;;;;;15.10;8.10;;;10.40;46.90;;;10.86;41.61;98421.19;5006945;28;20052;-59
2022/03/28 01:32:54;;;;;;;16.13;8.07;;;10.40;46.80;;;10.89;41.60;98417.41;5008688;28;20064;-59
2022/03/28 01:35:39;;;;;;;13.23;8.23;;;10.50;46.80;;;10.90;41.32;98413.75;5008530;28;20050;-59
2022/03/28 01:38:11;;;;;;;14.03;8.23;;;10.50;46.60;;;10.94;41.30;98417.81;5008467;28;20060;-59
2022/03/28 01:40:58;;;;;;;15.17;8.47;;;10.50;46.50;;;10.94;41.38;98408.00;5008467;28;20364;-59
2022/03/28 01:43:26;;;;;;;14.03;7.73;;;10.50;46.30;;;10.95;41.25;98408.81;5008324;28;20259;-59
2022/03/28 01:45:53;;;;;;;14.77;7.90;;;10.50;46.40;;;10.94;41.55;98405.31;5009013;28;20599;-59
2022/03/28 01:48:21;;;;;;;13.73;7.27;;;10.50;46.40;;;10.96;41.43;98403.34;5008305;28;20591;-59
2022/03/28 01:50:49;;;;;;;16.70;7.33;;;10.60;46.50;;;10.96;41.11;98397.19;5007328;28;20037;-59
2022/03/28 01:53:17;;;;;;;13.67;8.27;;;10.50;46.60;;;10.96;41.35;98391.88;5007416;28;20353;-59
2022/03/28 01:55:45;;;;;;;12.00;7.43;;;10.50;46.60;;;10.94;41.24;98393.84;5009480;28;20056;-59
2022/03/28 01:58:12;;;;;;;14.67;8.50;;;10.50;46.80;;;10.93;41.45;98389.47;5007716;28;20064;-59
2022/03/28 02:00:40;;;;;;;11.87;7.27;;;10.50;47.00;;;10.91;41.50;98394.13;5008283;28;20054;-59
2022/03/28 02:03:09;;;;;;;14.50;8.47;;;10.50;47.10;;;10.90;41.46;98392.44;5007963;28;20054;-59
2022/03/28 02:05:37;;;;;;;14.03;8.63;;;10.40;46.90;;;10.89;41.51;98385.44;5008167;28;20255;-59
2022/03/28 02:08:05;;;;;;;13.00;8.27;;;10.40;47.10;;;10.82;41.88;98396.66;5008854;28;20060;-59
2022/03/28 02:10:33;;;;;;;15.50;7.40;;;10.30;47.30;;;10.78;41.91;98389.13;5007889;28;20064;-59
2022/03/28 02:13:01;;;;;;;14.53;8.27;;;10.30;47.40;;;10.71;41.71;98386.19;5006631;28;20056;-60
2022/03/28 02:15:29;;;;;;;14.53;8.17;;;10.20;47.40;;;10.67;41.86;98379.47;5007765;28;20046;-59
2022/03/28 02:17:58;;;;;;;13.10;7.93;;;10.20;47.10;;;10.65;41.63;98378.78;5009281;28;20596;-59
2022/03/28 02:20:27;;;;;;;14.17;7.67;;;10.20;46.60;;;10.63;41.48;98378.91;5005279;28;20058;-59
2022/03/28 02:22:54;;;;;;;15.93;8.27;;;10.20;46.50;;;10.63;41.42;98381.56;5007623;28;20346;-59
2022/03/28 02:25:22;;;;;;;12.47;7.77;;;10.10;46.40;;;10.64;41.13;98379.75;5008235;28;20058;-59
2022/03/28 02:27:50;;;;;;;12.90;8.10;;;10.20;46.30;;;10.63;40.76;98372.75;5007297;28;20064;-60
2022/03/28 02:30:18;;;;;;;16.63;7.60;;;10.20;46.40;;;10.63;40.87;98367.44;5007326;28;20053;-59
2022/03/28 02:32:46;;;;;;;11.80;7.00;;;10.20;46.00;;;10.64;41.15;98367.28;5007938;28;20054;-59
2022/03/28 02:35:14;;;;;;;14.30;7.13;;;10.20;46.00;;;10.62;41.13;98361.25;5006974;28;20045;-59
2022/03/28 02:37:42;;;;;;;13.83;7.50;;;10.20;46.20;;;10.61;40.83;98364.91;5007017;28;20057;-59
2022/03/28 02:40:12;;;;;;;17.23;7.50;;;10.10;46.30;;;10.55;41.11;98359.31;5004864;28;20054;-59
2022/03/28 02:42:40;;;;;;;13.83;8.13;;;10.00;46.40;;;10.54;41.37;98362.94;5006738;28;20060;-59
2022/03/28 02:45:09;;;;;;;16.33;8.53;;;10.00;46.50;;;10.56;41.16;98367.13;5006867;28;20083;-59
2022/03/28 02:47:37;;;;;;;13.47;8.77;;;10.10;46.20;;;10.51;41.49;98368.59;5007476;28;20064;-59
2022/03/28 02:50:06;;;;;;;13.07;7.20;;;9.90;46.40;;;10.49;41.29;98358.06;5007363;28;20045;-59
2022/03/28 02:52:34;;;;;;;13.57;6.97;;;10.00;46.50;;;10.40;41.36;98354.44;5007885;28;20256;-59
2022/03/28 02:55:02;;;;;;;15.17;7.37;;;9.80;46.60;;;10.35;41.23;98363.81;5009113;28;20058;-59
2022/03/28 02:57:30;;;;;;;13.07;7.13;;;9.70;46.70;;;10.30;41.11;98358.06;5009894;28;20057;-59
2022/03/28 02:59:58;;;;;;;14.40;7.07;;;9.70;46.80;;;10.26;41.41;98357.50;5009396;28;20057;-59
2022/03/28 03:02:26;;;;;;;13.50;7.20;;;9.70;47.00;;;10.23;41.60;98352.47;5010640;28;20052;-59
2022/03/28 03:04:54;;;;;;;17.60;8.23;;;9.60;47.20;;;10.22;41.56;98350.78;5009285;28;20241;-59
2022/03/28 03:07:21;;;;;;;12.57;8.43;;;9.60;47.00;;;10.19;41.32;98354.56;5010055;28;20053;-59
2022/03/28 03:09:49;;;;;;;12.97;7.53;;;9.60;47.30;;;10.14;41.59;98343.53;5010714;28;20502;-60
2022/03/28 03:12:17;;;;;;;14.47;8.17;;;9.60;47.40;;;10.13;41.33;98343.66;5010356;28;20274;-60
2022/03/28 03:14:45;;;;;;;15.53;7.67;;;9.60;47.20;;;10.11;41.32;98341.13;5009683;28;20056;-60
2022/03/28 03:17:13;;;;;;;15.30;8.80;;;9.60;46.80;;;10.08;41.38;98338.78;5009346;28;20046;-59
2022/03/28 03:19:41;;;;;;;13.13;7.97;;;9.50;46.90;;;10.05;41.55;98342.53;5008356;28;20050;-60
2022/03/28 03:22:09;;;;;;;13.73;8.03;;;9.50;47.00;;;9.98;41.71;98336.13;5008232;28;20445;-59
2022/03/28 03:24:37;;;;;;;13.03;8.13;;;9.40;47.30;;;9.94;41.87;98339.19;5010832;28;20046;-59
2022/03/28 03:27:05;;;;;;;11.53;6.97;;;9.40;47.50;;;9.90;41.86;98337.78;5014345;28;20050;-59
2022/03/28 03:29:37;;;;;;;13.53;8.50;;;9.30;47.60;;;9.83;41.80;98335.69;5012235;28;20390;-59
2022/03/28 03:32:06;;;;;;;18.10;8.80;;;9.20;47.60;;;9.81;41.67;98339.47;5011493;28;20062;-59
2022/03/28 03:34:34;;;;;;;20.40;11.87;;;9.20;47.20;;;9.79;41.82;98333.44;5013742;28;20268;-60
2022/03/28 03:37:04;;;;;;;25.70;14.93;;;9.20;47.20;;;9.75;41.55;98332.88;5013381;28;20057;-59
2022/03/28 03:39:32;;;;;;;21.40;13.30;;;9.10;47.30;;;9.72;41.58;98332.31;5012438;28;20233;-59
2022/03/28 03:41:59;;;;;;;18.63;11.47;;;9.10;47.40;;;9.66;41.57;98329.22;5014003;28;20052;-59
2022/03/28 03:44:27;;;;;;;24.70;15.00;;;9.00;47.30;;;9.53;41.91;98331.31;5013438;28;20053;-59
2022/03/28 03:46:55;;;;;;;16.73;11.27;;;8.90;47.70;;;9.51;41.96;98333.25;5013527;28;20058;-59
2022/03/28 03:49:23;;;;;;;19.70;10.70;;;8.90;47.80;;;9.52;41.77;98323.47;5012402;28;20042;-59
2022/03/28 03:51:51;;;;;;;16.97;10.07;;;8.90;47.70;;;9.46;42.07;98317.75;5013797;28;20045;-59
2022/03/28 03:54:19;;;;;;;19.53;11.07;;;8.90;48.00;;;9.42;42.10;98329.63;4997149;28;20477;-59
2022/03/28 03:56:47;;;;;;;16.80;9.87;;;8.80;48.00;;;9.40;42.21;98328.06;5015473;28;20050;-59
2022/03/28 03:59:15;;;;;;;15.43;9.57;;;8.80;48.00;;;9.38;41.82;98328.22;5014514;28;20045;-59
2022/03/28 04:01:42;;;;;;;15.07;8.63;;;8.70;47.90;;;9.34;42.01;98325.97;5014145;28;20046;-59
2022/03/28 04:04:12;;;;;;;18.40;9.53;;;8.70;48.20;;;9.35;42.27;98322.34;5012894;28;20316;-59
2022/03/28 04:06:40;;;;;;;17.53;9.10;;;8.70;48.20;;;9.33;42.37;98326.94;5014353;28;20049;-59
2022/03/28 04:09:08;;;;;;;17.03;9.20;;;8.70;48.30;;;9.33;42.24;98324.28;5013209;28;20076;-59
2022/03/28 04:11:36;;;;;;;16.80;7.97;;;8.70;48.40;;;9.31;42.52;98326.25;5012888;28;20248;-59
2022/03/28 04:14:04;;;;;;;12.67;8.13;;;8.70;48.50;;;9.28;42.41;98327.34;5014020;28;20264;-59
2022/03/28 04:16:32;;;;;;;20.60;9.27;;;8.70;48.60;;;9.26;42.19;98324.81;5013903;28;20057;-59
2022/03/28 04:19:00;;;;;;;14.13;8.03;;;8.70;48.50;;;9.24;42.50;98332.09;5012826;28;20057;-59
2022/03/28 04:21:28;;;;;;;14.43;8.40;;;8.60;48.50;;;9.23;42.46;98324.28;5013180;28;20057;-59
2022/03/28 04:23:55;;;;;;;13.93;7.93;;;8.70;48.60;;;9.21;42.56;98326.22;5012398;28;20052;-59
2022/03/28 04:26:23;;;;;;;15.97;7.73;;;8.60;48.60;;;9.19;42.57;98321.03;5012124;28;20588;-60
2022/03/28 04:28:51;;;;;;;13.60;8.93;;;8.60;48.60;;;9.18;42.56;98323.84;5011194;28;20052;-60
2022/03/28 04:31:19;;;;;;;15.97;7.90;;;8.60;48.60;;;9.19;42.51;98325.50;5011496;28;20050;-60
2022/03/28 04:33:47;;;;;;;16.03;7.77;;;8.60;49.10;;;9.15;42.47;98324.94;5012439;28;20048;-60
2022/03/28 04:36:18;;;;;;;17.13;8.83;;;8.60;48.60;;;9.10;42.41;98323.69;5011963;28;20058;-60
2022/03/28 04:38:46;;;;;;;15.20;7.57;;;8.50;48.80;;;8.98;42.90;98322.94;5013424;28;20050;-59
2022/03/28 04:41:14;;;;;;;13.03;7.83;;;8.30;49.30;;;8.98;43.11;98325.59;5011864;28;20072;-60
2022/03/28 04:43:42;;;;;;;14.40;7.17;;;8.30;49.50;;;8.98;42.91;98329.09;5008731;28;20049;-59
2022/03/28 04:46:09;;;;;;;14.37;9.00;;;8.40;49.10;;;9.02;42.72;98325.19;5010959;28;20060;-59
2022/03/28 04:48:37;;;;;;;13.67;7.87;;;8.50;48.70;;;9.05;42.68;98324.06;5012347;28;20686;-59
2022/03/28 04:51:05;;;;;;;14.43;8.47;;;8.50;48.60;;;9.06;42.58;98320.44;5011858;28;20056;-59
2022/03/28 04:53:33;;;;;;;14.23;8.33;;;8.50;48.50;;;9.05;42.77;98322.28;5011334;28;20050;-59
2022/03/28 04:56:01;;;;;;;17.27;8.20;;;8.50;48.50;;;9.04;42.68;98322.41;5012166;28;20060;-59
2022/03/28 04:58:28;;;;;;;14.97;9.17;;;8.50;48.60;;;9.04;42.81;98325.88;5012211;28;20056;-59
2022/03/28 05:00:56;;;;;;;19.53;8.40;;;8.50;48.70;;;9.03;42.68;98323.34;5010576;28;20340;-59
2022/03/28 05:03:24;;;;;;;14.40;8.77;;;8.50;48.60;;;8.99;42.95;98322.78;5009925;28;20274;-59
2022/03/28 05:05:52;;;;;;;20.07;9.40;;;8.40;48.90;;;8.83;43.04;98325.94;5009497;28;20216;-59
2022/03/28 05:08:20;;;;;;;19.30;11.30;;;8.10;49.70;;;8.74;43.17;98331.22;5009301;28;20053;-59
2022/03/28 05:10:48;;;;;;;19.07;10.90;;;8.00;50.10;;;8.69;43.41;98330.78;5010019;28;20061;-59
2022/03/28 05:13:16;;;;;;;21.17;12.03;;;8.00;50.20;;;8.69;43.58;98323.66;5009812;28;20056;-59
2022/03/28 05:15:43;;;;;;;19.43;11.83;;;8.00;50.10;;;8.69;43.50;98328.97;5009850;28;20053;-59
2022/03/28 05:18:14;;;;;;;20.97;12.83;;;8.10;49.80;;;8.74;43.34;98325.91;5009156;28;20547;-57
2022/03/28 05:20:42;;;;;;;16.80;11.00;;;8.20;49.40;;;8.75;43.30;98320.47;5008490;28;20050;-54
2022/03/28 05:23:10;;;;;;;20.90;10.83;;;8.20;49.30;;;8.76;43.19;98322.16;5008096;28;20061;-55
2022/03/28 05:25:38;;;;;;;18.13;10.13;;;8.20;49.60;;;8.75;43.33;98323.13;5009393;28;20259;-56
2022/03/28 05:28:06;;;;;;;20.20;10.33;;;8.20;49.70;;;8.77;43.15;98331.78;5007268;28;20046;-55
2022/03/28 05:30:34;;;;;;;18.03;11.40;;;8.20;50.20;;;8.74;43.29;98329.38;5007886;28;20060;-58
2022/03/28 05:33:02;;;;;;;21.13;10.63;;;8.20;49.60;;;8.74;43.40;98326.72;5008803;28;20042;-57
2022/03/28 05:35:30;;;;;;;20.70;9.80;;;8.20;49.80;;;8.77;43.42;98325.66;5008233;28;20060;-57
2022/03/28 05:37:59;;;;;;;17.97;10.40;;;8.20;49.40;;;8.74;43.49;98328.56;5007323;28;20054;-57
2022/03/28 05:40:27;;;;;;;17.00;10.63;;;8.20;49.50;;;8.74;43.39;98318.78;5007756;28;20058;-56
2022/03/28 05:42:55;;;;;;;19.83;10.23;;;8.20;49.60;;;8.75;43.65;98322.28;4990718;28;20046;-58
2022/03/28 05:45:24;;;;;;;16.30;9.07;;;8.20;49.40;;;8.75;43.30;98320.47;5007439;28;20064;-57
2022/03/28 05:47:53;;;;;;;20.67;9.77;;;8.20;49.50;;;8.75;43.39;98322.28;5008099;28;20046;-58
2022/03/28 05:50:22;;;;;;;15.17;9.50;;;8.20;49.60;;;8.76;43.54;98327.47;5007541;28;20072;-57
2022/03/28 05:52:49;;;;;;;18.00;9.50;;;8.30;49.60;;;8.78;43.45;98317.56;5007674;28;20046;-57
2022/03/28 05:55:17;;;;;;;16.37;9.90;;;8.30;49.50;;;8.79;43.51;98332.50;5006368;28;20054;-60
2022/03/28 05:57:45;;;;;;;19.60;11.10;;;8.30;49.40;;;8.82;43.49;98328.72;5008699;28;20060;-58
2022/03/28 06:00:14;;;;;;;16.97;9.50;;;8.30;49.20;;;8.82;43.22;98334.03;5007726;28;20054;-57
2022/03/28 06:02:43;;;;;;;21.43;10.67;;;8.30;49.00;;;8.82;43.15;98331.38;5007895;28;20046;-59
2022/03/28 06:05:12;;;;;;;16.83;8.83;;;8.30;49.00;;;8.83;43.26;98338.38;5006190;28;20061;-55
2022/03/28 06:07:40;;;;;;;15.77;9.13;;;8.40;48.80;;;8.90;43.54;98336.88;5011616;28;20340;-53
2022/03/28 06:10:09;;;;;;;20.17;9.60;;;8.50;49.00;;;8.98;43.40;98330.91;5007636;28;20048;-54
2022/03/28 06:12:36;;;;;;;17.47;10.83;;;8.60;48.80;;;9.05;43.23;98345.31;5006994;28;20042;-59
2022/03/28 06:15:05;;;;;;;19.37;10.23;;;8.70;48.80;;;9.12;43.22;98335.00;5007472;28;20062;-57
2022/03/28 06:17:33;;;;;;;14.90;9.03;;;8.70;48.80;;;9.13;43.45;98329.56;5007479;28;20247;-56
2022/03/28 06:20:05;;;;;;;16.87;9.10;;;8.70;49.20;;;9.15;43.34;98338.22;5006976;28;20057;-56
2022/03/28 06:22:32;;;;;;;19.70;9.57;;;8.70;50.10;;;9.15;43.43;98337.38;5007511;28;20053;-57
2022/03/28 06:25:01;;;;;;;19.80;9.63;;;8.70;49.20;;;9.15;43.28;98342.69;5006717;28;20048;-55
2022/03/28 06:27:47;;;;;;;17.27;9.90;;;8.70;49.40;;;9.13;43.53;98336.66;5008230;28;20598;-53
2022/03/28 06:30:15;;;;;;;17.03;9.07;;;8.60;49.50;;;9.06;43.75;98347.00;5007482;28;20233;-55
2022/03/28 06:32:43;;;;;;;21.30;10.37;;;8.50;50.00;;;9.05;43.91;98342.66;5006805;28;20056;-58
2022/03/28 06:35:11;;;;;;;22.03;10.27;;;8.50;50.20;;;9.05;43.84;98342.66;5006797;28;20054;-58
2022/03/28 06:37:39;;;;;;;18.37;10.73;;;8.60;50.20;;;9.10;44.14;98340.44;5006745;28;20049;-56
2022/03/28 06:40:08;;;;;;;18.20;10.20;;;8.60;50.00;;;9.16;44.20;98345.22;5006923;28;20063;-57
2022/03/28 06:42:40;;;;;;;19.17;8.73;;;8.80;50.40;;;9.20;44.30;98338.66;5007210;28;20060;-59
2022/03/28 06:45:10;;;;;;;19.23;9.03;;;8.80;50.50;;;9.25;44.61;98340.91;5005573;28;20050;-58
2022/03/28 06:47:39;;;;;;;13.77;8.63;;;8.90;50.80;;;9.30;44.77;98348.47;5008009;28;20054;-58
2022/03/28 06:50:09;;;;;;;18.40;9.83;;;8.90;51.00;;;9.34;44.92;98341.91;5006641;28;20068;-58
2022/03/28 06:52:37;;;;;;;15.80;8.63;;;9.00;51.20;;;9.38;44.80;98345.97;5006512;28;20056;-58
2022/03/28 06:55:05;;;;;;;18.77;9.20;;;9.00;51.20;;;9.42;44.87;98339.41;5007760;28;20053;-55
2022/03/28 06:57:33;;;;;;;20.27;11.80;;;9.10;51.40;;;9.46;45.13;98338.19;5005549;28;20079;-59
2022/03/28 07:00:02;;;;;;;18.20;10.03;;;9.10;52.20;;;9.51;44.80;98340.41;5005399;28;20119;-60
2022/03/28 07:02:30;;;;;;;19.10;8.60;;;9.20;51.20;;;9.52;44.85;98334.97;5005581;28;20264;-57
2022/03/28 07:04:58;;;;;;;15.47;9.43;;;9.20;50.90;;;9.58;44.72;98338.88;5006040;28;20336;-57
2022/03/28 07:07:26;;;;;;;14.50;9.63;;;9.30;51.10;;;9.61;44.96;98335.94;5005775;28;20064;-57
2022/03/28 07:09:54;;;;;;;16.90;9.23;;;9.30;51.10;;;9.63;44.81;98333.97;5007237;28;20224;-51
2022/03/28 07:12:23;;;;;;;14.30;9.23;;;9.30;51.20;;;9.67;44.94;98330.06;5006986;28;20251;-58
2022/03/28 07:14:52;;;;;;;16.30;9.13;;;9.40;51.30;;;9.73;44.95;98332.19;5007425;28;20378;-58
2022/03/28 07:17:21;;;;;;;18.17;9.97;;;9.50;51.20;;;9.78;44.93;98326.44;5009383;28;20356;-60
2022/03/28 07:19:49;;;;;;;15.63;10.20;;;9.50;51.00;;;9.83;44.99;98332.19;5006878;28;20042;-60
2022/03/28 07:22:17;;;;;;;19.47;10.50;;;9.60;51.10;;;9.89;45.01;98334.28;5006987;28;20054;-60
2022/03/28 07:24:45;;;;;;;18.33;9.77;;;9.70;51.20;;;9.96;45.19;98338.03;5006342;28;20048;-60
2022/03/28 07:27:14;;;;;;;19.77;9.27;;;9.70;51.10;;;10.01;45.29;98341.13;5006396;28;20054;-60
2022/03/28 07:29:43;;;;;;;16.73;10.07;;;9.80;51.30;;;10.05;45.58;98339.88;5003963;28;20071;-60
2022/03/28 07:32:11;;;;;;;16.93;9.60;;;9.90;51.70;;;10.12;45.75;98336.63;5005661;28;20058;-60
2022/03/28 07:34:43;;;;;;;17.43;9.63;;;9.90;51.80;;;10.18;45.44;98341.41;5006711;28;20067;-60
2022/03/28 07:37:13;;;;;;;17.40;10.90;;;10.00;52.00;;;10.25;45.94;98339.84;5007135;28;20340;-60
2022/03/28 07:39:41;;;;;;;20.13;10.10;;;10.10;52.00;;;10.30;45.48;98334.13;5005960;28;20050;-60
2022/03/28 07:42:09;;;;;;;17.43;9.03;;;10.10;51.70;;;10.36;45.64;98330.91;5007326;28;20058;-59
2022/03/28 07:44:36;;;;;;;15.70;9.90;;;10.20;51.30;;;10.42;45.04;98325.00;5005552;28;20054;-59
2022/03/28 07:47:08;;;;;;;18.40;10.63;;;10.30;51.00;;;10.48;44.98;98320.94;5006937;28;20064;-58
2022/03/28 07:49:38;;;;;;;16.17;10.03;;;10.30;50.70;;;10.54;44.99;98331.84;5005585;28;20054;-59
2022/03/28 07:52:08;;;;;;;18.77;10.47;;;10.40;50.30;;;10.63;44.58;98324.81;5004836;28;20339;-59
2022/03/28 07:54:36;;;;;;;14.37;9.97;;;10.50;50.00;;;10.72;44.53;98323.09;5004300;28;20062;-59
2022/03/28 07:57:05;;;;;;;20.27;10.13;;;10.60;49.90;;;10.79;44.81;98326.88;5010138;28;20041;-59
2022/03/28 07:59:34;;;;;;;18.07;9.90;;;10.70;49.70;;;10.84;43.99;98328.09;5031672;28;20085;-59
2022/03/28 08:02:02;;;;;;;20.50;10.73;;;10.80;49.20;;;10.92;43.71;98322.03;5039074;28;20053;-59
2022/03/28 08:04:31;;;;;;;15.13;10.63;;;10.90;48.60;;;11.00;43.57;98314.16;5040446;28;20054;-59
2022/03/28 08:07:00;;;;;;;17.27;10.70;;;11.00;48.60;;;11.08;43.60;98316.06;5038740;28;20217;-59
2022/03/28 08:09:28;;;;;;;16.60;10.07;;;11.10;48.60;;;11.15;43.96;98316.34;5039352;28;20054;-59
2022/03/28 08:11:56;;;;;;;16.77;11.10;;;11.10;48.50;;;11.21;43.81;98313.06;5038409;28;20059;-59
2022/03/28 08:14:25;;;;;;;17.17;10.03;;;11.20;48.50;;;11.29;44.21;98309.66;5043798;28;20283;-59
2022/03/28 08:16:53;;;;;;;17.90;10.60;;;11.20;48.60;;;11.35;44.17;98301.06;5043135;28;20061;-59
2022/03/28 08:19:23;;;;;;;17.10;10.67;;;11.30;48.70;;;11.41;43.81;98309.28;5039161;28;20462;-59
2022/03/28 08:21:52;;;;;;;19.47;10.27;;;11.40;48.50;;;11.46;44.06;98300.00;5040873;28;20065;-59
2022/03/28 08:24:20;;;;;;;17.83;10.17;;;11.40;48.30;;;11.50;43.42;98299.56;5040911;28;20041;-59
2022/03/28 08:26:49;;;;;;;15.50;9.57;;;11.40;48.30;;;11.56;43.32;98304.28;5039164;28;20232;-59
2022/03/28 08:29:17;;;;;;;16.97;10.13;;;11.50;48.10;;;11.63;43.22;98309.84;5038392;28;20042;-60
2022/03/28 08:31:44;;;;;;;17.20;9.07;;;11.60;47.90;;;11.68;43.21;98298.72;5039566;28;20059;-60
2022/03/28 08:34:12;;;;;;;16.27;9.80;;;11.70;47.70;;;11.73;43.28;98305.28;5041015;28;20045;-60
2022/03/28 08:36:40;;;;;;;17.60;9.57;;;11.70;47.40;;;11.78;42.62;98296.81;5040925;28;20355;-59
2022/03/28 08:39:08;;;;;;;15.55;10.25;;;11.70;47.00;;;11.83;42.67;98292.72;5040555;28;20049;-60
2022/03/28 08:41:36;;;;;;;17.20;9.30;;;11.80;46.80;;;11.91;41.75;98294.63;5038521;28;20063;-59
2022/03/28 08:44:04;;;;;;;14.00;8.87;;;11.90;46.10;;;11.97;41.83;98290.53;5038927;28;20041;-59
2022/03/28 08:46:33;;;;;;;15.17;9.43;;;12.00;45.90;;;12.03;41.91;98292.56;5043722;28;20235;-59
2022/03/28 08:49:01;;;;;;;18.55;10.50;;;12.00;45.70;;;12.08;42.17;98292.94;5043054;28;20288;-59
2022/03/28 08:51:29;;;;;;;15.67;9.33;;;12.10;45.90;;;12.14;42.06;98296.84;5044149;28;20045;-59
2022/03/28 08:53:57;;;;;;;20.63;8.45;;;12.10;46.00;;;12.19;41.90;98295.38;5043405;28;20044;-59
2022/03/28 08:56:25;;;;;;;19.17;9.60;;;12.20;46.10;;;12.25;42.26;98295.72;5043221;28;20233;-59
2022/03/28 08:59:10;;;;;;;15.50;10.10;;;12.20;46.10;;;12.32;42.07;98294.94;5040572;28;20057;-59
2022/03/28 09:01:38;;;;;;;20.27;10.65;;;12.30;46.00;;;12.35;41.96;98289.31;5036547;28;20045;-59
2022/03/28 09:04:08;;;;;;;16.73;9.82;;;12.40;45.80;;;12.44;41.86;98292.03;5036966;28;20063;-59
2022/03/28 09:06:42;;;;;;;17.33;10.10;;;12.50;45.60;;;12.50;41.28;98283.38;5036706;28;20239;-59
2022/03/28 09:09:21;;;;;;;15.63;9.90;;;12.50;45.40;;;12.57;41.43;98282.59;5034559;28;20045;-59
2022/03/28 09:11:52;;;;;;;18.75;9.95;;;12.60;46.10;;;12.63;41.78;98281.13;5031735;28;20042;-58
2022/03/28 09:14:40;;;;;;;19.38;9.90;;;12.60;45.40;;;12.69;41.53;98275.13;5031142;28;20055;-59
2022/03/28 09:17:14;;;;;;;17.50;10.15;;;12.70;45.00;;;12.72;41.71;98269.50;5033347;28;20452;-59
2022/03/28 09:20:02;;;;;;;14.02;9.55;;;12.80;45.40;;;12.78;41.73;98268.00;5030704;28;20045;-59
2022/03/28 09:22:41;;;;;;;17.60;9.30;;;12.80;45.10;;;12.84;41.33;98259.34;5030415;28;20053;-59
2022/03/28 09:25:12;;;;;;;16.23;10.13;;;12.90;45.50;;;12.91;41.53;98252.38;5030869;28;20056;-59
2022/03/28 09:27:44;;;;;;;17.77;9.63;;;13.00;45.50;;;12.97;41.32;98253.56;5029338;28;20051;-59
2022/03/28 09:30:16;;;;;;;17.80;9.82;;;13.00;45.10;;;13.03;40.95;98252.06;5029949;28;20255;-59
2022/03/28 09:32:48;;;;;;;21.80;11.10;;;13.10;44.60;;;13.08;40.92;98247.91;5030408;28;20064;-59
2022/03/28 09:35:22;;;;;;;20.33;9.73;;;13.10;44.30;;;13.13;40.50;98245.59;5028847;28;20045;-59
2022/03/28 09:38:02;;;;;;;20.38;10.20;;;13.20;44.10;;;13.22;40.53;98249.09;5030742;28;20061;-59
2022/03/28 09:40:43;;;;;;;17.58;10.85;;;13.30;44.10;;;13.29;40.34;98243.97;5029158;28;20053;-59
2022/03/28 09:43:21;;;;;;;18.08;10.73;;;13.30;44.00;;;13.36;40.34;98237.00;5029611;28;20057;-59
2022/03/28 09:45:55;;;;;;;20.33;10.88;;;13.40;43.20;;;13.39;39.89;98231.28;5030916;28;20235;-59
2022/03/28 09:48:27;;;;;;;17.20;10.70;;;13.50;43.40;;;13.50;40.16;98225.63;5028304;28;20075;-54
2022/03/28 09:51:05;;;;;;;20.73;11.02;;;13.60;43.30;;;13.57;39.43;98220.44;5027738;28;20260;-53
2022/03/28 09:53:38;;;;;;;16.70;10.25;;;13.70;42.90;;;13.66;39.65;98218.63;5028024;28;20364;-54
2022/03/28 09:56:09;;;;;;;18.20;10.77;;;13.80;42.70;;;13.73;39.75;98216.97;5027853;28;20059;-52
2022/03/28 09:58:48;;;;;;;21.10;12.63;;;13.80;42.60;;;13.77;38.54;98208.41;5028170;28;20247;-52
2022/03/28 10:01:20;;;;;;;20.25;10.45;;;13.90;42.30;;;13.87;38.92;98210.94;5027200;28;20044;-51
2022/03/28 10:03:55;;;;;;;19.42;10.75;;;14.00;41.70;;;13.93;37.99;98204.06;5025809;28;20574;-53
2022/03/28 10:06:23;;;;;;;26.75;11.65;;;14.10;41.00;;;13.99;38.17;98212.25;5027886;28;20366;-51
2022/03/28 10:08:51;;;;;;;20.15;11.73;;;14.10;40.90;;;14.06;38.37;98206.22;5027002;28;20063;-48
2022/03/28 10:11:20;;;;;;;18.45;10.38;;;14.20;41.20;;;14.11;38.43;98206.53;5028004;28;20053;-50
2022/03/28 10:13:48;;;;;;;17.85;10.30;;;14.20;41.10;;;14.17;38.29;98198.69;5027298;28;20041;-55
2022/03/28 10:16:16;;;;;;;29.48;11.80;;;14.30;41.00;;;14.24;38.04;98196.16;5027807;28;20075;-51
2022/03/28 10:18:46;;;;;;;19.25;11.05;;;14.40;40.80;;;14.30;38.00;98183.91;5026676;28;20051;-48
2022/03/28 10:21:29;;;;;;;22.08;11.77;;;14.40;39.90;;;14.34;37.70;98193.28;5025423;28;20049;-50
2022/03/28 10:24:14;;;;;;;22.07;11.50;;;14.40;40.20;;;14.35;36.78;98192.28;5026870;28;20055;-52
2022/03/28 10:26:45;;;;;;;21.90;11.30;;;14.50;38.30;;;14.41;37.24;98180.03;5027151;28;20049;-54